White Hall, Arkansas
Current Conditions -  °F | °C
As of 12:03 AM on Sunday 26 Oct 2014 (Local Time) from KPBF Reporting Station
Moderate Fog Moderate Fog  
Wind Chill: 62°   Ceiling: 600
Heat Index: 62°   Visibility: 0.25mi
Dew Point: 61°   Wind: 0mph
Humidity: 96%   Direction: NA
Pressure: 30.04"   Gusts: NA
Location:  34.28°N, 92.1°W
Report Text: KPBF 260503Z AUTO 00000KT 1/4SM FG VV006 17/16 A3004 RMK AO2 T01670161
Loading
Personal Weather Stations






























Interactive Weather Map
Tropical Storm Tracking
New forecast layout! Learn more

10-Day Weather Forecast

Advertisements
Track Severe Weather on mobile